Terminal Aerodrome Forecast
Issued by NWS Melbourne, FL

Home | Current Version | Previous Version | Text Only | Print | Product List | Glossary On
Versions: 1 2 3 4 5 6 7 8 9 10 11 12 13 14 15 16 17 18 19
000
FTUS42 KMLB 231143
TAFVRB
TAF
KVRB 231143Z 2312/2412 26003KT 1/2SM FG OVC002
      TEMPO 2312/2314 3SM BR BKN005
     FM231400 25006KT P6SM SCT008 BKN020
     FM231700 05009KT P6SM SCT020 BKN040
     FM240000 36004KT P6SM FEW015=

USA.gov is the U.S. government's official web portal to all federal, state and local government web resources and services.